Clam Gulch, AK

2:25 PM AKDT on September 28, 2016 (GMT -0800)
mile 16.05 Oilwell Rd. | | Change Station

Elev 1161 ft 60.02 °N, 151.33 °W | Updated 13 minutes ago

Partly Cloudy
Partly Cloudy
48.4 °F
Feels Like 45 °F
N
6.7
Wind Variable Wind from WSW

Today
High -- | Low -- °F
--% Chance of Precip.
Yesterday
High -- | Low -- °F
Precip. -- in
Pressure 30.36 in
Visibility 10.0 miles
Clouds Few 2400 ft
Windchill 45 °F
Dew Point 40 °F
Humidity 72%
Rainfall 0.00 in
Snow Depth Not available.
8:05 AM 7:44 PM
Waning Crescent, 4% visible
METAR PASX 282216Z AUTO 25010KT 10SM FEW024 12/03 A3036 RMK AO1
Pressure 30.36 in
Visibility 10.0 miles
Clouds Few 2400 ft
Windchill 45 °F
Dew Point 40 °F
Humidity 72%
Rainfall 0.00 in
Snow Depth Not available.
8:05 AM 7:44 PM
Waning Crescent, 4% visible
METAR PASX 282216Z AUTO 25010KT 10SM FEW024 12/03 A3036 RMK AO1

10-Day Weather Forecast

Almanac

Astronomy

Sep. 28, 2016 Rise Set
Actual Time
Civil Twilight
Nautical Twilight
Astronomical Twilight
Moon
Length of Visible Light
Length of Day
Tomorrow will be .
, % of the Moon is Illuminated

Today's Extremes

State Highs State Lows

Community

WunderPhotos

Upload Photos

1,942,337 photos uploaded!

WunderBlog® & News

Nearby

Air Quality

  Air Quality AQ Index Pollutant
Not available.

Snow Depth

Station Depth Elevation

Earthquake Activity

City Distance Mag. Time & Date
Minimum magnitude displayed is 2.5.

Coastal Water Temperatures

Place Temperature

Stations

Nearby Weather Stations

Station Location Temp. Windchill Dew Point Humidity Wind Precip. Elev Updated Type
                   

Watches & Warnings

There are currently no watches in effect.